createdAt,value
2019-05-13T03:16:52.564Z,19.23
2019-05-13T03:19:22.453Z,27.13
2019-05-13T03:21:52.612Z,20.43
2019-05-13T03:24:23.010Z,18.50
2019-05-13T03:26:53.447Z,22.43
2019-05-13T03:29:22.603Z,26.10
2019-05-13T03:31:55.803Z,27.80
2019-05-13T03:34:26.662Z,24.57
2019-05-13T03:36:57.211Z,26.83
2019-05-13T03:39:24.381Z,25.97
2019-05-13T03:41:56.133Z,24.10
2019-05-13T03:44:27.545Z,20.07
2019-05-13T03:46:58.853Z,20.33
2019-05-13T03:49:32.324Z,23.00
2019-05-13T03:52:03.063Z,21.70
2019-05-13T03:54:32.931Z,22.80
2019-05-13T03:57:03.433Z,29.10
2019-05-13T03:59:33.599Z,25.80
2019-05-13T04:02:03.034Z,24.37
2019-05-13T04:04:32.524Z,21.77
2019-05-13T04:07:02.844Z,23.80
2019-05-13T04:09:36.142Z,25.63
2019-05-13T04:12:03.527Z,23.73
2019-05-13T04:14:33.660Z,25.17
2019-05-13T04:17:03.573Z,22.60
2019-05-13T04:19:33.857Z,31.63
2019-05-13T04:22:03.528Z,25.30
2019-05-13T04:24:33.545Z,25.87
2019-05-13T04:27:03.369Z,27.60
2019-05-13T04:29:33.374Z,24.13
2019-05-13T04:32:02.933Z,25.40
2019-05-13T04:34:33.830Z,21.50
2019-05-13T04:37:02.926Z,25.00
2019-05-13T04:39:44.706Z,20.43
2019-05-13T04:42:02.920Z,17.57
2019-05-13T04:44:32.698Z,20.73
2019-05-13T04:47:03.691Z,21.07
2019-05-13T04:49:32.954Z,16.57
2019-05-13T04:52:03.586Z,20.60
2019-05-13T04:54:33.555Z,16.50
2019-05-13T04:57:03.389Z,16.57
2019-05-13T04:59:34.578Z,23.70
2019-05-13T05:02:55.313Z,20.40
2019-05-13T05:05:52.480Z,16.27
2019-05-13T05:09:15.407Z,18.37
2019-05-13T05:12:23.079Z,15.93
2019-05-13T05:15:27.423Z,16.43
2019-05-13T05:18:42.107Z,21.43
2019-05-13T05:21:16.014Z,17.20
2019-05-13T05:24:11.264Z,15.33
2019-05-13T05:27:17.507Z,16.07
2019-05-13T05:30:06.363Z,16.50
2019-05-13T05:33:06.076Z,18.70
2019-05-13T05:36:17.885Z,17.37
2019-05-13T05:39:12.358Z,15.37
2019-05-13T05:41:43.408Z,12.17
2019-05-13T05:44:13.489Z,14.83
2019-05-13T05:46:42.935Z,12.63
2019-05-13T05:49:12.841Z,11.97
2019-05-13T05:51:43.088Z,13.13
2019-05-13T05:54:14.733Z,13.40
2019-05-13T05:56:44.956Z,14.57
2019-05-13T05:59:14.115Z,9.53
2019-05-13T06:01:45.065Z,9.87
2019-05-13T06:04:14.194Z,7.70
2019-05-13T06:06:43.824Z,6.47
2019-05-13T06:09:12.945Z,8.90
2019-05-13T06:11:42.262Z,10.83
2019-05-13T06:14:11.435Z,6.97
2019-05-13T06:16:42.547Z,5.40
2019-05-13T06:19:12.127Z,6.83
2019-05-13T06:21:42.037Z,6.50
2019-05-13T06:24:11.750Z,6.23
2019-05-13T06:26:41.969Z,4.03
2019-05-13T06:29:11.768Z,7.37
2019-05-13T06:31:41.981Z,5.10
2019-05-13T06:34:12.582Z,4.93
2019-05-13T06:36:42.024Z,8.17
2019-05-13T06:39:12.368Z,6.00
2019-05-13T06:41:41.790Z,6.10
2019-05-13T06:44:12.132Z,8.30
2019-05-13T06:46:42.312Z,5.87
2019-05-13T06:49:12.256Z,5.67
2019-05-13T06:51:41.908Z,6.07
2019-05-13T06:54:11.602Z,4.15
2019-05-13T06:56:42.781Z,4.03
2019-05-13T06:59:12.013Z,4.17
2019-05-13T07:01:42.389Z,5.03
2019-05-13T07:04:12.511Z,6.83
2019-05-13T07:06:42.033Z,6.07
2019-05-13T07:09:11.952Z,6.20
2019-05-13T07:11:41.762Z,6.30
2019-05-13T07:14:12.678Z,5.60
2019-05-13T07:16:42.189Z,5.30
2019-05-13T07:19:11.801Z,6.77
2019-05-13T07:21:41.888Z,8.60
2019-05-13T07:24:12.607Z,6.80
2019-05-13T07:26:42.016Z,3.33
2019-05-13T07:29:12.820Z,7.23
2019-05-13T07:31:42.258Z,9.67
2019-05-13T07:34:11.698Z,6.47
2019-05-13T07:36:44.082Z,4.63
2019-05-13T07:39:13.129Z,6.33
2019-05-13T07:41:43.111Z,12.97
2019-05-13T07:44:12.641Z,4.80
2019-05-13T07:46:42.694Z,3.70
2019-05-13T07:49:12.149Z,3.70
2019-05-13T07:51:41.993Z,3.00
2019-05-13T07:54:11.588Z,2.43
2019-05-13T07:56:42.553Z,4.40
2019-05-13T07:59:12.300Z,2.10
2019-05-13T08:01:41.910Z,5.50
2019-05-13T08:04:21.936Z,5.03
2019-05-13T08:06:41.818Z,8.37
2019-05-13T08:09:12.822Z,4.10
2019-05-13T08:11:59.934Z,4.27
2019-05-13T08:14:12.520Z,2.77
2019-05-13T08:16:42.716Z,2.50
2019-05-13T08:19:12.383Z,4.23
2019-05-13T08:21:41.897Z,4.27
2019-05-13T08:24:11.986Z,4.23
2019-05-13T08:26:45.076Z,4.80
2019-05-13T08:29:12.016Z,3.90
2019-05-13T08:31:41.310Z,4.30
2019-05-13T08:34:11.820Z,3.87
2019-05-13T08:36:42.749Z,4.00
2019-05-13T08:39:12.697Z,5.63
2019-05-13T08:41:42.440Z,2.50
2019-05-13T08:44:12.294Z,3.97
2019-05-13T08:46:41.734Z,2.33
2019-05-13T08:49:11.906Z,4.50
2019-05-13T08:51:42.086Z,10.23
2019-05-13T08:54:11.712Z,7.43
2019-05-13T08:56:41.669Z,2.93
2019-05-13T08:59:11.536Z,3.57
2019-05-13T09:01:42.627Z,3.90
2019-05-13T09:04:12.047Z,5.40
2019-05-13T09:06:41.898Z,4.70
2019-05-13T09:09:11.649Z,11.43
2019-05-13T09:11:42.221Z,3.23
2019-05-13T09:14:11.642Z,3.63
2019-05-13T09:16:41.842Z,2.23
2019-05-13T09:19:15.830Z,2.70
2019-05-13T09:21:42.425Z,8.90
2019-05-13T09:24:23.885Z,4.10
2019-05-13T09:26:42.380Z,4.63
2019-05-13T09:29:12.046Z,4.07
2019-05-13T09:31:41.699Z,6.13
2019-05-13T09:34:12.233Z,5.70
2019-05-13T09:36:41.891Z,4.50
2019-05-13T09:39:12.684Z,13.20
2019-05-13T09:41:44.474Z,12.23
2019-05-13T09:44:12.813Z,5.00
2019-05-13T09:46:42.630Z,11.63
2019-05-13T09:49:19.418Z,2.77
2019-05-13T09:51:42.561Z,9.33
2019-05-13T09:54:11.833Z,2.57
2019-05-13T09:56:41.433Z,7.00
2019-05-13T09:59:11.749Z,1.80
2019-05-13T10:01:42.481Z,6.00
2019-05-13T10:04:12.034Z,2.10
2019-05-13T10:06:42.145Z,2.53
2019-05-13T10:09:12.570Z,4.93
2019-05-13T10:11:41.831Z,4.23
2019-05-13T10:14:11.604Z,4.20
2019-05-13T10:16:42.537Z,4.93
2019-05-13T10:19:12.727Z,12.23
2019-05-13T10:21:42.381Z,2.87
2019-05-13T10:24:12.733Z,4.40
2019-05-13T10:26:42.914Z,3.47
2019-05-13T10:29:12.510Z,3.73
2019-05-13T10:31:42.190Z,7.13
2019-05-13T10:34:14.030Z,2.83
2019-05-13T10:36:42.516Z,3.10
2019-05-13T10:39:12.194Z,2.93
2019-05-13T10:41:42.383Z,3.53
2019-05-13T10:44:12.208Z,3.33
2019-05-13T10:46:42.622Z,5.23
2019-05-13T10:49:12.469Z,3.57
2019-05-13T10:51:42.010Z,2.87
2019-05-13T10:54:11.319Z,3.37
2019-05-13T10:56:43.134Z,4.93
2019-05-13T10:59:12.546Z,1.73
2019-05-13T11:01:42.795Z,3.80
2019-05-13T11:04:13.590Z,1.73
2019-05-13T11:06:42.945Z,5.63
2019-05-13T11:09:13.220Z,5.13
2019-05-13T11:11:42.497Z,3.93
2019-05-13T11:14:15.531Z,5.40
2019-05-13T11:16:42.773Z,4.87
2019-05-13T11:19:12.176Z,4.73
2019-05-13T11:24:12.826Z,2.50
2019-05-13T11:26:42.102Z,3.93
2019-05-13T11:29:12.194Z,4.50
2019-05-13T11:31:42.851Z,7.23
2019-05-13T11:34:17.035Z,2.27
2019-05-13T11:36:46.219Z,4.03
2019-05-13T11:39:15.272Z,7.53
2019-05-13T11:41:44.367Z,4.00
2019-05-13T11:44:16.748Z,4.33
2019-05-13T11:46:44.230Z,5.03
2019-05-13T11:49:13.794Z,3.55
2019-05-13T11:51:43.072Z,4.30
2019-05-13T11:54:13.926Z,6.80
2019-05-13T11:56:49.467Z,3.60
2019-05-13T11:59:14.304Z,2.67
2019-05-13T12:01:43.617Z,2.67
2019-05-13T12:04:12.817Z,3.87
2019-05-13T12:06:48.010Z,1.50
2019-05-13T12:09:13.514Z,4.17
2019-05-13T12:11:42.775Z,2.03
2019-05-13T12:14:37.231Z,2.27
2019-05-13T12:16:42.670Z,4.00
2019-05-13T12:19:12.046Z,1.40
2019-05-13T12:21:45.908Z,4.37
2019-05-13T12:24:22.665Z,3.73
2019-05-13T12:26:53.503Z,3.07
2019-05-13T12:29:42.699Z,3.80
2019-05-13T12:32:15.875Z,3.63
2019-05-13T12:34:54.489Z,2.30
2019-05-13T12:37:33.946Z,1.73
2019-05-13T12:40:09.019Z,4.03
2019-05-13T12:42:46.849Z,3.10
2019-05-13T12:45:17.773Z,2.10
2019-05-13T12:47:48.404Z,2.37
2019-05-13T12:50:23.528Z,2.20
2019-05-13T12:53:02.697Z,6.03
2019-05-13T12:55:33.102Z,2.33
2019-05-13T12:58:04.587Z,2.40
2019-05-13T13:00:42.832Z,4.23
2019-05-13T13:03:13.307Z,4.80
2019-05-13T13:05:43.442Z,5.33
2019-05-13T13:08:19.276Z,3.10
2019-05-13T13:10:43.288Z,2.80
2019-05-13T13:13:15.429Z,6.40
2019-05-13T13:15:57.273Z,3.17
2019-05-13T13:18:26.468Z,4.37
2019-05-13T13:21:02.256Z,3.80
2019-05-13T13:23:42.458Z,2.10
2019-05-13T13:26:23.808Z,1.80
2019-05-13T13:28:59.511Z,3.23
2019-05-13T13:31:33.436Z,6.20
2019-05-13T13:34:19.179Z,0.80
2019-05-13T13:36:48.284Z,1.30
2019-05-13T13:39:24.879Z,1.80
2019-05-13T13:41:53.333Z,1.00
2019-05-13T13:44:34.731Z,1.80
2019-05-13T13:47:04.069Z,1.20
2019-05-13T13:49:38.314Z,1.00
2019-05-13T13:52:14.150Z,4.60
2019-05-13T13:54:44.156Z,1.40
2019-05-13T13:57:13.493Z,2.97
2019-05-13T14:00:16.296Z,2.80
2019-05-13T14:02:28.273Z,4.17
2019-05-13T14:05:05.617Z,2.13
2019-05-13T14:06:28.717Z,2.80
2019-05-13T14:07:42.371Z,3.93
2019-05-13T14:10:22.982Z,1.57
2019-05-13T14:12:54.708Z,2.83
2019-05-13T14:15:23.780Z,2.33
2019-05-13T14:17:57.245Z,2.30
2019-05-13T14:20:32.578Z,4.40
2019-05-13T14:23:03.603Z,3.67
2019-05-13T14:25:47.372Z,5.03
2019-05-13T14:28:18.893Z,3.23
2019-05-13T14:30:51.578Z,3.43
2019-05-13T14:33:20.749Z,2.93
2019-05-13T14:35:53.172Z,9.27
2019-05-13T14:38:23.826Z,1.53
2019-05-13T14:40:56.368Z,3.37
2019-05-13T14:43:26.491Z,3.50
2019-05-13T14:45:58.807Z,3.40
2019-05-13T14:48:32.968Z,2.20
2019-05-13T14:51:01.895Z,2.47
2019-05-13T14:53:35.159Z,1.40
2019-05-13T14:56:09.209Z,2.13
2019-05-13T14:58:44.587Z,3.57
2019-05-13T15:01:19.862Z,2.97
2019-05-13T15:03:52.679Z,2.00
2019-05-13T15:06:22.261Z,3.43
2019-05-13T15:08:52.878Z,2.17
2019-05-13T15:11:25.172Z,1.90
2019-05-13T15:13:54.457Z,2.70
2019-05-13T15:16:26.734Z,0.80
2019-05-13T15:19:01.163Z,2.97
2019-05-13T15:21:31.996Z,1.20
2019-05-13T15:24:05.381Z,1.23
2019-05-13T15:26:34.514Z,1.43
2019-05-13T15:29:05.245Z,3.17
2019-05-13T15:31:34.387Z,1.50
2019-05-13T15:34:03.559Z,3.90
2019-05-13T15:36:35.655Z,7.60
2019-05-13T15:39:11.894Z,3.90
2019-05-13T15:41:52.368Z,1.90
2019-05-13T15:44:24.427Z,6.30
2019-05-13T15:46:59.302Z,3.00
2019-05-13T15:49:29.275Z,6.57
2019-05-13T15:52:01.742Z,3.53
2019-05-13T15:54:28.991Z,3.43
2019-05-13T15:57:01.929Z,3.30
2019-05-13T15:59:30.839Z,1.47
2019-05-13T16:02:02.142Z,1.67
2019-05-13T16:04:30.712Z,3.73
2019-05-13T16:07:01.664Z,1.30
2019-05-13T16:09:33.869Z,3.93
2019-05-13T16:12:05.995Z,4.57
2019-05-13T16:14:41.439Z,2.87
2019-05-13T16:17:13.147Z,1.07
2019-05-13T16:19:48.146Z,2.80
2019-05-13T16:22:23.082Z,23.83
2019-05-13T16:24:52.324Z,2.30
2019-05-13T16:27:21.701Z,2.53
2019-05-13T16:29:54.320Z,5.30
2019-05-13T16:32:27.810Z,1.10
2019-05-13T16:34:56.839Z,1.57
2019-05-13T16:37:25.863Z,2.50
2019-05-13T16:39:57.746Z,9.67
2019-05-13T16:42:31.704Z,11.10
2019-05-13T16:45:00.755Z,2.50
2019-05-13T16:47:31.869Z,4.30
2019-05-13T16:50:02.610Z,3.73
2019-05-13T16:52:31.515Z,15.53
2019-05-13T16:55:02.534Z,2.20
2019-05-13T16:57:31.757Z,1.70
2019-05-13T17:00:02.422Z,2.37
2019-05-13T17:02:31.911Z,1.20
2019-05-13T17:05:01.388Z,8.23
2019-05-13T17:07:34.688Z,4.37
2019-05-13T17:10:03.928Z,6.10
2019-05-13T17:12:34.174Z,3.03
2019-05-13T17:15:03.352Z,1.47
2019-05-13T17:17:32.397Z,2.47
2019-05-13T17:20:02.382Z,2.50
2019-05-13T17:22:31.762Z,1.43
2019-05-13T17:25:02.511Z,3.10
2019-05-13T17:27:33.958Z,3.30
2019-05-13T17:30:03.114Z,2.10
2019-05-13T17:32:35.283Z,2.20
2019-05-13T17:35:06.234Z,1.30
2019-05-13T17:37:35.396Z,3.47
2019-05-13T17:40:04.686Z,6.93
2019-05-13T17:42:33.679Z,2.77
2019-05-13T17:45:02.749Z,2.50
2019-05-13T17:47:35.302Z,2.60
2019-05-13T17:50:04.668Z,3.47
2019-05-13T17:52:33.915Z,3.50
2019-05-13T17:55:02.977Z,3.67
2019-05-13T17:57:32.180Z,3.10
2019-05-13T18:00:07.399Z,4.50
2019-05-13T18:02:51.435Z,2.80
2019-05-13T18:05:24.293Z,4.50
2019-05-13T18:07:56.038Z,5.10
2019-05-13T18:10:31.787Z,5.80
2019-05-13T18:13:06.301Z,3.23
2019-05-13T18:15:39.365Z,7.23
2019-05-13T18:18:08.362Z,6.10
2019-05-13T18:20:41.398Z,3.93
2019-05-13T18:23:30.252Z,7.30
2019-05-13T18:26:01.721Z,2.63
2019-05-13T18:28:39.040Z,3.63
2019-05-13T18:31:12.266Z,4.10
2019-05-13T18:33:45.939Z,5.27
2019-05-13T18:36:17.984Z,4.83
2019-05-13T18:38:48.552Z,5.67
2019-05-13T18:41:34.453Z,4.87
2019-05-13T18:44:03.624Z,1.93
2019-05-13T18:46:32.675Z,1.43
2019-05-13T18:49:02.366Z,3.12
2019-05-13T18:51:34.226Z,3.90
2019-05-13T18:54:05.204Z,3.03
2019-05-13T18:56:34.359Z,3.97
2019-05-13T18:59:06.262Z,3.37
2019-05-13T19:01:36.803Z,2.60
2019-05-13T19:04:05.910Z,4.83
2019-05-13T19:06:38.411Z,9.83
2019-05-13T19:09:13.860Z,30.13
2019-05-13T19:11:46.064Z,20.33
2019-05-13T19:14:15.136Z,12.97
2019-05-13T19:16:50.098Z,9.37
2019-05-13T19:19:25.117Z,8.23
2019-05-13T19:21:57.120Z,4.10
2019-05-13T19:24:33.527Z,4.10
2019-05-13T19:27:07.246Z,3.87
2019-05-13T19:29:42.241Z,3.53
2019-05-13T19:32:12.187Z,10.00
2019-05-13T19:34:44.606Z,3.40
2019-05-13T19:37:23.615Z,2.60
2019-05-13T19:40:03.704Z,6.40
2019-05-13T19:42:32.857Z,1.67
2019-05-13T19:45:07.055Z,3.73
2019-05-13T19:47:41.565Z,9.27
2019-05-13T19:50:15.556Z,4.00
2019-05-13T19:52:53.880Z,4.80
2019-05-13T19:55:28.487Z,4.23
2019-05-13T19:58:03.662Z,2.83
2019-05-13T20:00:42.432Z,4.00
2019-05-13T20:03:17.259Z,8.23
2019-05-13T20:06:02.238Z,8.47
2019-05-13T20:08:32.453Z,11.00
2019-05-13T20:11:06.135Z,12.47
2019-05-13T20:13:41.599Z,9.23
2019-05-13T20:16:11.952Z,7.00
2019-05-13T20:18:46.630Z,11.87
2019-05-13T20:21:27.731Z,7.70
2019-05-13T20:24:03.601Z,8.73
2019-05-13T20:26:37.084Z,6.47
2019-05-13T20:29:06.315Z,8.10
2019-05-13T20:31:35.393Z,7.10
2019-05-13T20:34:04.754Z,2.47
2019-05-13T20:36:33.834Z,6.50
2019-05-13T20:39:04.236Z,2.70
2019-05-13T20:41:33.387Z,3.50
2019-05-13T20:44:02.719Z,5.83
2019-05-13T20:46:32.707Z,3.20
2019-05-13T20:49:01.872Z,12.07
2019-05-13T20:51:31.362Z,1.47
2019-05-13T20:54:02.396Z,5.73
2019-05-13T20:56:31.810Z,2.97
2019-05-13T20:59:00.983Z,5.47
2019-05-13T21:01:30.051Z,4.50
2019-05-13T21:03:59.027Z,3.33
2019-05-13T21:06:28.099Z,3.23
2019-05-13T21:08:57.003Z,2.73
2019-05-13T21:11:25.955Z,2.70
2019-05-13T21:13:55.023Z,5.67
2019-05-13T21:16:24.172Z,2.67
2019-05-13T21:18:53.206Z,2.43
2019-05-13T21:21:22.288Z,3.70
2019-05-13T21:23:52.182Z,2.50
2019-05-13T21:26:22.536Z,5.87
2019-05-13T21:28:52.185Z,0.90
2019-05-13T21:31:21.651Z,4.33
2019-05-13T21:33:51.404Z,3.77
2019-05-13T21:36:21.682Z,2.63
2019-05-13T21:38:50.978Z,6.00
2019-05-13T21:41:21.177Z,2.40
2019-05-13T21:43:52.078Z,1.63
2019-05-13T21:46:21.318Z,2.00
2019-05-13T21:48:52.085Z,1.47
2019-05-13T21:51:22.150Z,1.80
2019-05-13T21:53:51.954Z,3.27
2019-05-13T21:56:23.145Z,2.90
2019-05-13T21:58:52.142Z,1.97
2019-05-13T22:01:23.439Z,3.27
2019-05-13T22:03:52.477Z,1.43
2019-05-13T22:06:21.896Z,2.73
2019-05-13T22:08:51.785Z,3.93
2019-05-13T22:11:22.194Z,4.23
2019-05-13T22:13:51.639Z,4.20
2019-05-13T22:16:21.484Z,1.67
2019-05-13T22:18:52.385Z,2.60
2019-05-13T22:21:21.844Z,2.93
2019-05-13T22:23:51.761Z,1.57
2019-05-13T22:26:22.218Z,4.50
2019-05-13T22:28:51.712Z,1.53
